createdAt,value
2018-12-31T00:00:32.972Z,81.67
2018-12-31T00:03:02.959Z,81.30
2018-12-31T00:05:32.645Z,77.53
2018-12-31T00:08:02.500Z,76.70
2018-12-31T00:10:32.040Z,75.90
2018-12-31T00:13:01.965Z,75.73
2018-12-31T00:15:31.562Z,71.27
2018-12-31T00:18:01.258Z,75.53
2018-12-31T00:20:31.033Z,77.83
2018-12-31T00:23:00.662Z,76.03
2018-12-31T00:25:30.304Z,73.70
2018-12-31T00:28:00.035Z,75.23
2018-12-31T00:30:30.312Z,72.60
2018-12-31T00:33:00.077Z,80.27
2018-12-31T00:35:29.916Z,78.10
2018-12-31T00:37:59.488Z,83.77
2018-12-31T00:40:29.267Z,85.10
2018-12-31T00:42:59.232Z,86.90
2018-12-31T00:45:29.130Z,87.20
2018-12-31T00:47:58.842Z,84.30
2018-12-31T00:50:28.418Z,95.17
2018-12-31T00:52:58.200Z,95.57
2018-12-31T00:55:27.759Z,100.60
2018-12-31T00:57:57.779Z,101.13
2018-12-31T01:00:27.491Z,97.40
2018-12-31T01:02:57.059Z,95.80
2018-12-31T01:05:26.679Z,98.17
2018-12-31T01:07:56.365Z,97.27
2018-12-31T01:10:25.945Z,91.70
2018-12-31T01:12:55.728Z,89.73
2018-12-31T01:15:25.507Z,94.83
2018-12-31T01:17:55.644Z,88.23
2018-12-31T01:20:25.580Z,90.07
2018-12-31T01:22:55.318Z,87.90
2018-12-31T01:25:25.039Z,89.17
2018-12-31T01:27:54.804Z,80.37
2018-12-31T01:30:24.429Z,88.87
2018-12-31T01:32:53.988Z,86.13
2018-12-31T01:35:23.752Z,77.07
2018-12-31T01:37:53.510Z,79.90
2018-12-31T01:40:23.130Z,76.90
2018-12-31T01:42:52.740Z,82.97
2018-12-31T01:45:22.575Z,73.30
2018-12-31T01:47:52.326Z,86.40
2018-12-31T01:50:22.006Z,85.70
2018-12-31T01:52:51.534Z,75.27
2018-12-31T01:55:21.341Z,75.87
2018-12-31T01:57:51.008Z,76.10
2018-12-31T02:00:20.851Z,79.60
2018-12-31T02:02:50.318Z,76.00
2018-12-31T02:05:20.038Z,65.03
2018-12-31T02:07:49.740Z,69.53
2018-12-31T02:10:19.339Z,62.77
2018-12-31T02:12:49.144Z,67.87
2018-12-31T02:15:18.752Z,64.77
2018-12-31T02:17:48.292Z,69.30
2018-12-31T02:20:17.898Z,68.87
2018-12-31T02:22:47.647Z,64.83
2018-12-31T02:25:17.311Z,65.37
2018-12-31T02:27:47.058Z,56.20
2018-12-31T02:30:16.778Z,59.10
2018-12-31T02:32:46.456Z,62.90
2018-12-31T02:35:16.132Z,53.70
2018-12-31T02:37:45.923Z,51.40
2018-12-31T02:40:15.509Z,50.43
2018-12-31T02:42:45.337Z,45.90
2018-12-31T02:45:15.010Z,40.93
2018-12-31T02:47:44.709Z,47.93
2018-12-31T02:50:14.361Z,43.63
2018-12-31T02:52:44.083Z,37.17
2018-12-31T02:55:13.798Z,35.20
2018-12-31T02:57:43.700Z,34.57
2018-12-31T03:00:13.331Z,35.03
2018-12-31T03:02:43.208Z,35.30
2018-12-31T03:05:12.860Z,36.50
2018-12-31T03:07:42.549Z,35.67
2018-12-31T03:10:12.083Z,36.17
2018-12-31T03:12:42.027Z,32.03
2018-12-31T03:15:11.613Z,35.60
2018-12-31T03:17:41.689Z,36.67
2018-12-31T03:20:11.589Z,36.23
2018-12-31T03:22:41.071Z,39.13
2018-12-31T03:25:10.900Z,36.67
2018-12-31T03:27:40.505Z,39.93
2018-12-31T03:30:10.354Z,41.33
2018-12-31T03:32:39.955Z,41.37
2018-12-31T03:35:09.690Z,41.03
2018-12-31T03:37:39.360Z,38.63
2018-12-31T03:40:09.193Z,31.53
2018-12-31T03:42:38.710Z,40.13
2018-12-31T03:45:08.628Z,39.97
2018-12-31T03:47:38.235Z,41.53
2018-12-31T03:50:08.622Z,42.00
2018-12-31T03:52:38.177Z,38.10
2018-12-31T03:55:07.912Z,37.37
2018-12-31T03:57:37.562Z,33.57
2018-12-31T04:00:07.965Z,32.40
2018-12-31T04:02:37.547Z,36.23
2018-12-31T04:05:07.354Z,36.70
2018-12-31T04:07:36.858Z,33.70
2018-12-31T04:10:06.666Z,36.10
2018-12-31T04:12:36.239Z,36.93
2018-12-31T04:15:06.701Z,34.87
2018-12-31T04:17:36.553Z,35.73
2018-12-31T04:20:06.778Z,34.47
2018-12-31T04:22:39.601Z,33.73
2018-12-31T04:25:09.203Z,32.83
2018-12-31T04:27:38.946Z,35.50
2018-12-31T04:30:08.604Z,35.23
2018-12-31T04:32:38.242Z,37.27
2018-12-31T04:35:07.988Z,45.23
2018-12-31T04:37:37.921Z,44.97
2018-12-31T04:40:07.674Z,47.60
2018-12-31T04:42:37.586Z,41.17
2018-12-31T04:45:07.427Z,46.70
2018-12-31T04:47:37.051Z,47.10
2018-12-31T04:50:06.864Z,44.47
2018-12-31T04:52:36.540Z,57.30
2018-12-31T04:55:06.276Z,51.63
2018-12-31T04:57:35.849Z,55.77
2018-12-31T05:00:07.677Z,56.23
2018-12-31T05:02:37.193Z,63.10
2018-12-31T05:05:06.980Z,62.20
2018-12-31T05:07:36.572Z,64.27
2018-12-31T05:10:07.412Z,72.53
2018-12-31T05:12:36.955Z,67.80
2018-12-31T05:15:07.045Z,88.13
2018-12-31T05:17:36.763Z,72.87
2018-12-31T05:20:07.290Z,81.90
2018-12-31T05:22:36.901Z,87.93
2018-12-31T05:25:06.667Z,116.23
2018-12-31T05:27:36.267Z,103.40
2018-12-31T05:30:06.458Z,206.83
2018-12-31T05:32:36.099Z,143.00
2018-12-31T05:35:06.006Z,185.97
2018-12-31T05:37:35.722Z,130.73
2018-12-31T05:40:05.952Z,178.57
2018-12-31T05:42:35.507Z,180.00
2018-12-31T05:45:05.448Z,160.90
2018-12-31T05:47:35.000Z,95.23
2018-12-31T05:50:05.088Z,116.73
2018-12-31T05:52:34.897Z,122.27
2018-12-31T05:55:04.589Z,124.50
2018-12-31T05:57:34.312Z,111.50
2018-12-31T06:00:04.826Z,121.27
2018-12-31T06:02:34.325Z,166.77
2018-12-31T06:05:03.991Z,138.50
2018-12-31T06:07:33.554Z,131.47
2018-12-31T06:10:03.477Z,146.77
2018-12-31T06:12:33.048Z,160.20
2018-12-31T06:15:02.914Z,165.47
2018-12-31T06:17:32.476Z,213.07
2018-12-31T06:20:02.212Z,125.20
2018-12-31T06:22:31.849Z,124.87
2018-12-31T06:25:01.662Z,116.50
2018-12-31T06:27:31.203Z,103.83
2018-12-31T06:30:02.315Z,91.30
2018-12-31T06:32:32.267Z,79.33
2018-12-31T06:35:01.843Z,67.27
2018-12-31T06:37:31.356Z,68.47
2018-12-31T06:40:00.971Z,63.07
2018-12-31T06:42:30.505Z,58.47
2018-12-31T06:45:00.444Z,53.93
2018-12-31T06:47:30.116Z,49.77
2018-12-31T06:49:59.796Z,50.67
2018-12-31T06:52:29.382Z,51.00
2018-12-31T06:54:59.154Z,44.63
2018-12-31T06:57:28.775Z,43.30
2018-12-31T06:59:58.474Z,49.27
2018-12-31T07:02:28.073Z,40.67
2018-12-31T07:04:57.831Z,37.90
2018-12-31T07:07:27.373Z,35.60
2018-12-31T07:09:56.850Z,34.17
2018-12-31T07:12:26.592Z,32.87
2018-12-31T07:14:56.221Z,34.57
2018-12-31T07:17:26.052Z,30.90
2018-12-31T07:19:55.686Z,29.17
2018-12-31T07:22:25.442Z,30.03
2018-12-31T07:24:55.017Z,32.03
2018-12-31T07:27:24.846Z,29.13
2018-12-31T07:29:56.205Z,30.07
2018-12-31T07:32:25.732Z,33.13
2018-12-31T07:34:55.386Z,28.80
2018-12-31T07:37:25.130Z,31.60
2018-12-31T07:39:54.897Z,29.90
2018-12-31T07:42:24.502Z,29.57
2018-12-31T07:44:54.221Z,30.20
2018-12-31T07:47:23.890Z,30.30
2018-12-31T07:49:53.794Z,29.93
2018-12-31T07:52:23.447Z,28.50
2018-12-31T07:54:53.141Z,29.40
2018-12-31T07:57:22.751Z,28.20
2018-12-31T07:59:52.511Z,29.00
2018-12-31T08:02:22.091Z,30.07
2018-12-31T08:04:52.095Z,29.00
2018-12-31T08:07:21.691Z,27.53
2018-12-31T08:09:51.396Z,27.27
2018-12-31T08:12:20.995Z,28.67
2018-12-31T08:14:50.754Z,29.20
2018-12-31T08:17:20.351Z,24.87
2018-12-31T08:19:49.941Z,26.80
2018-12-31T08:22:19.767Z,23.63
2018-12-31T08:24:49.269Z,24.70
2018-12-31T08:27:19.035Z,22.57
2018-12-31T08:29:48.664Z,20.20
2018-12-31T08:32:18.227Z,20.20
2018-12-31T08:34:47.908Z,21.70
2018-12-31T08:37:17.632Z,19.97
2018-12-31T08:39:47.296Z,20.93
2018-12-31T08:42:17.032Z,21.93
2018-12-31T08:44:46.710Z,16.77
2018-12-31T08:47:16.496Z,14.37
2018-12-31T08:49:46.139Z,14.43
2018-12-31T08:52:15.857Z,14.33
2018-12-31T08:54:45.541Z,16.33
2018-12-31T08:57:15.726Z,16.57
2018-12-31T08:59:45.537Z,14.57
2018-12-31T09:02:15.300Z,16.50
2018-12-31T09:04:44.975Z,14.40
2018-12-31T09:07:14.655Z,14.60
2018-12-31T09:09:44.377Z,13.47
2018-12-31T09:12:14.015Z,14.57
2018-12-31T09:14:43.740Z,14.90
2018-12-31T09:17:13.450Z,11.90
2018-12-31T09:19:43.099Z,12.77
2018-12-31T09:22:13.060Z,12.13
2018-12-31T09:24:44.715Z,12.53
2018-12-31T09:27:14.228Z,12.53
2018-12-31T09:29:43.967Z,12.37
2018-12-31T09:32:13.532Z,11.17
2018-12-31T09:34:43.110Z,12.50
2018-12-31T09:37:13.074Z,12.40
2018-12-31T09:39:42.818Z,11.33
2018-12-31T09:42:12.511Z,9.87
2018-12-31T09:44:42.231Z,13.93
2018-12-31T09:47:11.975Z,15.00
2018-12-31T09:49:41.624Z,11.80
2018-12-31T09:52:11.386Z,11.83
2018-12-31T09:54:41.161Z,11.97
2018-12-31T09:57:11.191Z,11.47
2018-12-31T09:59:40.809Z,9.87
2018-12-31T10:02:10.429Z,11.57
2018-12-31T10:04:40.310Z,16.93
2018-12-31T10:07:10.193Z,11.83
2018-12-31T10:09:39.844Z,14.53
2018-12-31T10:12:09.525Z,13.67
2018-12-31T10:14:39.199Z,12.47
2018-12-31T10:17:08.931Z,12.50
2018-12-31T10:19:38.599Z,13.37
2018-12-31T10:22:08.330Z,11.63
2018-12-31T10:24:38.011Z,11.37
2018-12-31T10:27:08.093Z,12.00
2018-12-31T10:29:37.707Z,11.63
2018-12-31T10:32:07.284Z,10.23
2018-12-31T10:34:36.873Z,9.13
2018-12-31T10:37:06.737Z,12.13
2018-12-31T10:39:36.312Z,13.47
2018-12-31T10:42:06.156Z,11.13
2018-12-31T10:44:35.714Z,12.70
2018-12-31T10:47:05.465Z,10.17
2018-12-31T10:49:35.105Z,9.37
2018-12-31T10:52:04.889Z,10.37
2018-12-31T10:54:34.438Z,8.90
2018-12-31T10:57:04.266Z,11.30
2018-12-31T10:59:33.913Z,11.17
2018-12-31T11:02:03.774Z,10.13
2018-12-31T11:04:33.326Z,13.37
2018-12-31T11:07:03.170Z,10.10
2018-12-31T11:09:32.711Z,11.63
2018-12-31T11:12:02.595Z,14.73
2018-12-31T11:14:32.160Z,14.83
2018-12-31T11:17:02.015Z,14.07
2018-12-31T11:19:33.434Z,17.00
2018-12-31T11:22:03.299Z,14.50
2018-12-31T11:24:32.884Z,14.77
2018-12-31T11:27:02.805Z,13.83
2018-12-31T11:29:32.357Z,11.53
2018-12-31T11:32:02.249Z,15.37
2018-12-31T11:34:31.846Z,11.53
2018-12-31T11:37:01.593Z,14.13
2018-12-31T11:39:31.158Z,12.07
2018-12-31T11:42:01.050Z,12.57
2018-12-31T11:44:30.632Z,12.20
2018-12-31T11:47:00.443Z,18.37
2018-12-31T11:49:30.162Z,17.03
2018-12-31T11:51:59.839Z,15.50
2018-12-31T11:54:29.494Z,19.33
2018-12-31T11:56:59.150Z,13.23
2018-12-31T11:59:28.883Z,12.30
2018-12-31T12:01:58.710Z,14.73
2018-12-31T12:04:28.303Z,17.57
2018-12-31T12:06:58.035Z,15.30
2018-12-31T12:09:27.765Z,14.40
2018-12-31T12:11:57.629Z,14.17
2018-12-31T12:14:27.368Z,14.20
2018-12-31T12:16:56.939Z,20.73
2018-12-31T12:19:26.556Z,18.43
2018-12-31T12:21:56.354Z,21.27
2018-12-31T12:24:25.916Z,21.87
2018-12-31T12:26:55.800Z,19.17
2018-12-31T12:29:25.654Z,21.83
2018-12-31T12:31:55.239Z,24.23
2018-12-31T12:34:25.542Z,25.20
2018-12-31T12:36:55.087Z,21.20
2018-12-31T12:39:25.014Z,24.60
2018-12-31T12:41:54.654Z,23.30
2018-12-31T12:44:24.493Z,22.03
2018-12-31T12:46:54.572Z,20.10
2018-12-31T12:49:24.636Z,22.07
2018-12-31T12:51:54.509Z,20.67
2018-12-31T12:54:24.119Z,23.83
2018-12-31T12:56:53.875Z,23.47
2018-12-31T12:59:23.863Z,23.57
2018-12-31T13:01:53.792Z,23.63
2018-12-31T13:04:23.361Z,23.23
2018-12-31T13:06:53.110Z,25.00
2018-12-31T13:09:22.744Z,25.80
2018-12-31T13:11:52.607Z,26.00
2018-12-31T13:14:23.998Z,24.87
2018-12-31T13:16:53.853Z,27.27
2018-12-31T13:19:23.509Z,26.23
2018-12-31T13:21:53.229Z,26.90
2018-12-31T13:24:22.878Z,23.10
2018-12-31T13:26:52.505Z,27.63
2018-12-31T13:29:22.323Z,27.50
2018-12-31T13:31:52.174Z,21.77
2018-12-31T13:34:21.737Z,22.87
2018-12-31T13:36:51.542Z,21.77
2018-12-31T13:39:21.278Z,22.77
2018-12-31T13:41:51.378Z,19.97
2018-12-31T13:44:21.140Z,23.10
2018-12-31T13:46:50.973Z,21.90
2018-12-31T13:49:20.495Z,17.97
2018-12-31T13:51:50.223Z,22.77
2018-12-31T13:54:19.992Z,20.90
2018-12-31T13:56:49.580Z,20.17
2018-12-31T13:59:19.472Z,20.00
2018-12-31T14:01:50.268Z,20.77
2018-12-31T14:04:20.276Z,28.03
2018-12-31T14:06:50.068Z,23.03
2018-12-31T14:09:19.694Z,25.27
2018-12-31T14:11:49.315Z,24.00
2018-12-31T14:14:19.083Z,25.47
2018-12-31T14:16:48.797Z,25.13
2018-12-31T14:19:18.486Z,23.73
2018-12-31T14:21:48.326Z,23.53
2018-12-31T14:24:18.474Z,21.33
2018-12-31T14:26:48.085Z,32.40
2018-12-31T14:29:17.854Z,23.83
2018-12-31T14:31:47.547Z,27.37
2018-12-31T14:34:18.391Z,28.87
2018-12-31T14:36:47.985Z,28.00
2018-12-31T14:39:17.710Z,26.67
2018-12-31T14:41:47.272Z,27.70
2018-12-31T14:44:17.125Z,28.77
2018-12-31T14:46:56.063Z,27.00
2018-12-31T14:49:25.659Z,24.93
2018-12-31T14:51:55.479Z,31.20
2018-12-31T14:54:25.158Z,26.20
2018-12-31T14:56:54.974Z,25.90
2018-12-31T14:59:24.594Z,30.63
2018-12-31T15:01:54.822Z,26.60
2018-12-31T15:04:24.568Z,33.40
2018-12-31T15:06:54.104Z,39.00
2018-12-31T15:09:24.108Z,39.33
2018-12-31T15:11:53.715Z,29.10
2018-12-31T15:14:23.529Z,29.47
2018-12-31T15:16:53.521Z,27.87
2018-12-31T15:19:23.143Z,33.47
2018-12-31T15:21:53.259Z,31.33
2018-12-31T15:24:23.128Z,29.77
2018-12-31T15:26:52.793Z,25.40
2018-12-31T15:29:22.582Z,25.63
2018-12-31T15:31:52.183Z,28.23
2018-12-31T15:34:22.060Z,28.80
2018-12-31T15:36:51.626Z,33.43
2018-12-31T15:39:21.517Z,31.57
2018-12-31T15:41:51.258Z,35.93
2018-12-31T15:44:20.823Z,30.43
2018-12-31T15:46:50.533Z,34.43
2018-12-31T15:49:20.222Z,39.37
2018-12-31T15:51:49.874Z,34.17
2018-12-31T15:54:19.732Z,36.80
2018-12-31T15:56:49.420Z,34.53
2018-12-31T15:59:19.083Z,32.63
2018-12-31T16:01:48.845Z,40.07
2018-12-31T16:04:18.878Z,32.33
2018-12-31T16:06:48.814Z,38.37
2018-12-31T16:09:18.474Z,41.57
2018-12-31T16:11:48.088Z,40.57
2018-12-31T16:14:17.860Z,38.80
2018-12-31T16:16:47.571Z,34.63
2018-12-31T16:19:17.238Z,34.73
2018-12-31T16:21:47.292Z,44.97
2018-12-31T16:24:17.157Z,38.20
2018-12-31T16:26:46.743Z,47.30
2018-12-31T16:29:16.593Z,44.83
2018-12-31T16:31:46.160Z,51.30
2018-12-31T16:34:15.931Z,46.70
2018-12-31T16:36:45.521Z,44.30
2018-12-31T16:39:15.372Z,45.30
2018-12-31T16:41:44.972Z,46.53
2018-12-31T16:44:14.905Z,37.53
2018-12-31T16:46:44.537Z,41.70
2018-12-31T16:49:14.298Z,38.90
2018-12-31T16:51:44.131Z,39.33
2018-12-31T16:54:13.808Z,41.20
2018-12-31T16:56:43.361Z,45.27
2018-12-31T16:59:12.969Z,47.83
2018-12-31T17:01:42.753Z,40.90
2018-12-31T17:04:12.471Z,49.87
2018-12-31T17:06:42.121Z,48.47
2018-12-31T17:09:11.857Z,51.93
2018-12-31T17:11:41.522Z,42.73
2018-12-31T17:14:11.226Z,45.13
2018-12-31T17:16:40.985Z,55.97
2018-12-31T17:19:10.673Z,46.47
2018-12-31T17:21:40.542Z,46.27
2018-12-31T17:24:10.204Z,47.87
2018-12-31T17:26:39.791Z,55.93
2018-12-31T17:29:09.563Z,45.03
2018-12-31T17:31:39.189Z,43.67
2018-12-31T17:34:09.257Z,40.73
2018-12-31T17:36:39.161Z,41.90
2018-12-31T17:39:09.414Z,50.50
2018-12-31T17:41:39.227Z,41.97
2018-12-31T17:44:08.801Z,43.47
2018-12-31T17:46:39.066Z,40.83
2018-12-31T17:49:08.741Z,38.10
2018-12-31T17:51:38.436Z,39.23
2018-12-31T17:54:08.092Z,41.27
2018-12-31T17:56:37.692Z,44.67
2018-12-31T17:59:07.462Z,44.37
2018-12-31T18:01:37.173Z,41.00
2018-12-31T18:04:06.711Z,44.83
2018-12-31T18:06:36.281Z,40.37
2018-12-31T18:09:07.785Z,44.17
2018-12-31T18:11:37.441Z,41.30
2018-12-31T18:14:07.421Z,41.80
2018-12-31T18:16:37.056Z,45.20
2018-12-31T18:19:06.706Z,41.97
2018-12-31T18:21:36.267Z,41.07
2018-12-31T18:24:06.228Z,41.13
2018-12-31T18:26:35.781Z,39.67
2018-12-31T18:29:05.487Z,42.73
2018-12-31T18:31:35.082Z,48.57
2018-12-31T18:34:05.256Z,38.87
2018-12-31T18:36:35.239Z,44.10
2018-12-31T18:39:06.797Z,39.40
2018-12-31T18:41:36.954Z,42.67
2018-12-31T18:44:06.698Z,37.13
2018-12-31T18:46:37.329Z,45.10
2018-12-31T18:49:07.341Z,47.07
2018-12-31T18:51:37.406Z,39.37
2018-12-31T18:54:07.107Z,40.40
2018-12-31T18:56:36.782Z,42.83
2018-12-31T18:59:06.432Z,35.53
2018-12-31T19:01:36.108Z,41.67
2018-12-31T19:04:05.654Z,43.30
2018-12-31T19:06:35.561Z,40.47
2018-12-31T19:09:07.208Z,31.17
2018-12-31T19:11:37.146Z,32.37
2018-12-31T19:14:06.638Z,32.17
2018-12-31T19:16:36.313Z,34.50
2018-12-31T19:19:06.118Z,40.27
2018-12-31T19:21:36.103Z,25.07
2018-12-31T19:24:05.993Z,32.80
2018-12-31T19:26:35.568Z,43.40
2018-12-31T19:29:05.341Z,41.50
2018-12-31T19:31:35.032Z,46.37
2018-12-31T19:34:05.116Z,39.17
2018-12-31T19:36:35.178Z,46.80
2018-12-31T19:39:06.187Z,38.70
2018-12-31T19:41:35.802Z,31.03
2018-12-31T19:44:06.179Z,33.57
2018-12-31T19:46:35.947Z,30.50
2018-12-31T19:49:05.517Z,29.20
2018-12-31T19:51:35.203Z,23.53
2018-12-31T19:54:04.858Z,30.30
2018-12-31T19:56:34.577Z,24.33
2018-12-31T19:59:04.163Z,23.37
2018-12-31T20:01:33.896Z,24.47
2018-12-31T20:04:03.619Z,27.73
2018-12-31T20:06:33.640Z,26.27
2018-12-31T20:09:04.686Z,21.60
2018-12-31T20:11:34.417Z,27.90
2018-12-31T20:14:04.246Z,30.40
2018-12-31T20:16:33.816Z,28.23
2018-12-31T20:19:03.492Z,27.57
2018-12-31T20:21:33.546Z,31.83
2018-12-31T20:24:03.316Z,27.23
2018-12-31T20:26:33.017Z,28.43
2018-12-31T20:29:02.690Z,33.40
2018-12-31T20:31:32.814Z,29.70
2018-12-31T20:34:02.609Z,30.33
2018-12-31T20:36:32.330Z,34.00
2018-12-31T20:39:02.087Z,35.37
2018-12-31T20:41:31.746Z,32.47
2018-12-31T20:44:01.449Z,31.47
2018-12-31T20:46:31.217Z,41.17
2018-12-31T20:49:20.032Z,36.83
2018-12-31T20:51:49.957Z,32.53
2018-12-31T20:54:19.716Z,39.47
2018-12-31T20:56:49.456Z,36.30
2018-12-31T20:59:19.410Z,37.03
2018-12-31T21:01:48.923Z,46.50
2018-12-31T21:04:18.649Z,39.27
2018-12-31T21:06:48.236Z,41.37
2018-12-31T21:09:17.821Z,51.13
2018-12-31T21:11:47.655Z,39.73
2018-12-31T21:14:17.205Z,41.83
2018-12-31T21:16:47.076Z,44.03
2018-12-31T21:19:16.915Z,40.97
2018-12-31T21:21:46.551Z,43.53
2018-12-31T21:24:16.379Z,44.37
2018-12-31T21:26:45.999Z,41.83
2018-12-31T21:29:15.804Z,42.87
2018-12-31T21:31:45.425Z,47.53
2018-12-31T21:34:15.121Z,42.53
2018-12-31T21:36:44.811Z,41.03
2018-12-31T21:39:14.631Z,43.63
2018-12-31T21:41:44.289Z,48.27
2018-12-31T21:44:14.015Z,45.60
2018-12-31T21:46:43.596Z,43.00
2018-12-31T21:49:13.402Z,52.83
2018-12-31T21:51:43.122Z,42.73
2018-12-31T21:54:12.895Z,45.53
2018-12-31T21:56:42.459Z,44.30
2018-12-31T21:59:12.230Z,48.50
2018-12-31T22:01:41.909Z,50.60
2018-12-31T22:04:11.731Z,47.80
2018-12-31T22:06:41.349Z,43.13
2018-12-31T22:09:11.048Z,49.93
2018-12-31T22:11:40.680Z,45.10
2018-12-31T22:14:10.438Z,40.67
2018-12-31T22:16:40.165Z,45.40
2018-12-31T22:19:09.711Z,51.67
2018-12-31T22:21:39.355Z,43.33
2018-12-31T22:24:09.240Z,37.50
2018-12-31T22:26:39.024Z,37.83
2018-12-31T22:29:08.680Z,48.23
2018-12-31T22:31:38.526Z,40.67
2018-12-31T22:34:08.239Z,40.90
2018-12-31T22:36:38.460Z,35.57
2018-12-31T22:39:08.128Z,35.40
2018-12-31T22:41:37.839Z,39.33
2018-12-31T22:44:07.404Z,40.03
2018-12-31T22:46:37.174Z,36.83
2018-12-31T22:49:07.393Z,37.57
2018-12-31T22:51:36.963Z,38.30
2018-12-31T22:54:06.810Z,46.30
2018-12-31T22:56:36.463Z,46.17
2018-12-31T22:59:06.317Z,55.20
2018-12-31T23:01:35.955Z,47.03
2018-12-31T23:04:05.653Z,67.40
2018-12-31T23:06:35.947Z,239.77
2018-12-31T23:09:09.227Z,126.17
2018-12-31T23:11:39.229Z,165.63
2018-12-31T23:14:08.793Z,179.20
2018-12-31T23:16:38.666Z,173.43
2018-12-31T23:19:08.158Z,143.83
2018-12-31T23:21:38.430Z,167.37
2018-12-31T23:24:08.314Z,164.40
2018-12-31T23:26:37.840Z,189.83
2018-12-31T23:29:07.625Z,109.83
2018-12-31T23:31:37.239Z,105.47
2018-12-31T23:34:06.998Z,93.40
2018-12-31T23:36:37.229Z,76.03
2018-12-31T23:39:07.955Z,198.37
2018-12-31T23:41:37.647Z,70.83
2018-12-31T23:44:07.326Z,66.77
2018-12-31T23:46:37.066Z,56.90
2018-12-31T23:49:06.708Z,64.57
2018-12-31T23:51:36.405Z,70.00
2018-12-31T23:54:06.820Z,62.47
2018-12-31T23:56:36.408Z,54.17
2018-12-31T23:59:06.368Z,53.10
